Time;durP1;ratioP1;P1;durP2;ratioP2;P2;SDS_P1;SDS_P2;PMS_P1;PMS_P2;Temp;Humidity;BMP_temperature;BMP_pressure;BME280_temperature;BME280_humidity;BME280_pressure;Samples;Min_cycle;Max_cycle;Signal;HPM_P1;HPM_P2
2023/09/21 00:01:12;;;;;;;;;;;15.10;99.90;;;;;;7609346;19;19922;-71
2023/09/21 00:03:44;;;;;;;;;;;15.10;99.90;;;;;;7607938;19;19918;-73
2023/09/21 00:06:17;;;;;;;;;;;15.00;99.90;;;;;;7604697;19;19919;-73
2023/09/21 00:08:51;;;;;;;;;;;14.90;99.90;;;;;;7608820;19;19972;-73
2023/09/21 00:11:24;;;;;;;;;;;14.90;99.90;;;;;;7604840;19;19938;-73
2023/09/21 00:13:56;;;;;;;;;;;15.00;99.90;;;;;;7604950;19;19918;-73
2023/09/21 00:16:28;;;;;;;;;;;15.00;99.90;;;;;;7595172;19;19975;-73
2023/09/21 00:19:06;;;;;;;;;;;14.80;99.90;;;;;;7594936;19;19914;-73
2023/09/21 00:21:39;;;;;;;;;;;14.70;99.90;;;;;;7595490;19;19941;-71
2023/09/21 00:24:12;;;;;;;;;;;14.80;99.90;;;;;;7598924;19;19926;-73
2023/09/21 00:26:49;;;;;;;;;;;14.70;99.90;;;;;;7592541;19;19923;-70
2023/09/21 00:29:21;;;;;;;;;;;14.70;99.90;;;;;;7601080;19;19923;-71
2023/09/21 00:31:57;;;;;;;;;;;14.70;99.90;;;;;;7588659;19;19923;-71
2023/09/21 00:34:30;;;;;;;;;;;14.60;99.90;;;;;;7598826;19;20507;-72
2023/09/21 00:37:02;;;;;;;;;;;14.70;99.90;;;;;;7593879;19;19930;-71
2023/09/21 00:39:34;;;;;;;;;;;14.70;99.90;;;;;;7594061;19;19930;-73
2023/09/21 00:42:07;;;;;;;;;;;14.80;99.90;;;;;;7589534;19;19957;-71
2023/09/21 00:44:40;;;;;;;;;;;14.80;99.90;;;;;;7587062;19;20374;-71
2023/09/21 00:47:13;;;;;;;;;;;14.80;99.90;;;;;;7592226;19;19926;-73
2023/09/21 00:49:46;;;;;;;;;;;14.70;99.90;;;;;;7598569;19;19915;-71
2023/09/21 00:52:18;;;;;;;;;;;14.70;99.90;;;;;;7585826;19;19915;-71
2023/09/21 00:54:50;;;;;;;;;;;14.60;99.90;;;;;;7591081;19;20360;-71
2023/09/21 00:57:24;;;;;;;;;;;14.60;99.90;;;;;;7586791;19;19919;-74
2023/09/21 00:59:57;;;;;;;;;;;14.60;99.90;;;;;;7594019;19;19931;-71
2023/09/21 01:02:29;;;;;;;;;;;14.70;99.90;;;;;;7588815;19;20341;-73
2023/09/21 01:05:08;;;;;;;;;;;14.60;99.90;;;;;;7595461;19;19930;-72
2023/09/21 01:07:43;;;;;;;;;;;14.70;99.90;;;;;;7601660;19;19922;-72
2023/09/21 01:10:19;;;;;;;;;;;14.70;99.90;;;;;;7597113;19;19950;-72
2023/09/21 01:12:52;;;;;;;;;;;14.70;99.90;;;;;;7594451;19;19918;-72
2023/09/21 01:15:24;;;;;;;;;;;14.60;99.90;;;;;;7595755;19;19922;-71
2023/09/21 01:17:56;;;;;;;;;;;14.60;99.90;;;;;;7596265;19;20619;-72
2023/09/21 01:20:32;;;;;;;;;;;14.70;99.90;;;;;;7592598;19;20474;-71
2023/09/21 01:23:18;;;;;;;;;;;14.70;99.90;;;;;;7590967;19;19911;-72
2023/09/21 01:25:52;;;;;;;;;;;14.70;99.90;;;;;;7590302;19;20602;-71
2023/09/21 01:28:26;;;;;;;;;;;14.60;99.90;;;;;;7590932;19;20408;-72
2023/09/21 01:30:58;;;;;;;;;;;14.60;99.90;;;;;;7592489;19;19922;-71
2023/09/21 01:33:31;;;;;;;;;;;14.70;99.90;;;;;;7592188;19;20348;-72
2023/09/21 01:36:08;;;;;;;;;;;14.60;99.90;;;;;;7591431;19;21032;-72
2023/09/21 01:38:46;;;;;;;;;;;14.50;99.90;;;;;;7358003;19;19922;-71
2023/09/21 01:41:19;;;;;;;;;;;14.50;99.90;;;;;;7237591;19;19923;-71
2023/09/21 01:43:52;;;;;;;;;;;14.50;99.90;;;;;;7592746;19;19937;-71
2023/09/21 01:46:26;;;;;;;;;;;14.50;99.90;;;;;;7591510;19;19922;-71
2023/09/21 01:48:58;;;;;;;;;;;14.50;99.90;;;;;;7597067;19;20510;-71
2023/09/21 01:51:31;;;;;;;;;;;14.50;99.90;;;;;;7588893;19;19994;-71
2023/09/21 01:54:03;;;;;;;;;;;14.60;99.90;;;;;;7595534;19;20076;-72
2023/09/21 01:56:36;;;;;;;;;;;14.70;99.90;;;;;;7587433;19;19919;-71
2023/09/21 01:59:08;;;;;;;;;;;14.70;99.90;;;;;;7596711;19;20791;-72
2023/09/21 02:01:42;;;;;;;;;;;14.70;99.90;;;;;;7574302;19;19919;-69
2023/09/21 02:04:14;;;;;;;;;;;14.60;99.90;;;;;;7580681;19;19918;-72
2023/09/21 02:06:47;;;;;;;;;;;14.60;99.90;;;;;;7595001;19;20435;-71
2023/09/21 02:09:20;;;;;;;;;;;14.60;99.90;;;;;;7598173;19;19967;-71
2023/09/21 02:11:52;;;;;;;;;;;14.50;99.90;;;;;;7588006;19;20440;-71
2023/09/21 02:14:24;;;;;;;;;;;14.60;99.90;;;;;;7593477;19;19934;-72
2023/09/21 02:16:57;;;;;;;;;;;14.60;99.90;;;;;;7594015;19;19922;-72
2023/09/21 02:19:34;;;;;;;;;;;14.50;99.90;;;;;;7594919;19;19998;-71
2023/09/21 02:22:07;;;;;;;;;;;14.60;99.90;;;;;;7582140;19;19964;-71
2023/09/21 02:24:39;;;;;;;;;;;14.60;99.90;;;;;;7597507;19;19986;-72
2023/09/21 02:27:11;;;;;;;;;;;14.50;99.90;;;;;;7591292;19;20769;-71
2023/09/21 02:29:43;;;;;;;;;;;14.60;99.90;;;;;;7596518;19;19925;-71
2023/09/21 02:32:15;;;;;;;;;;;14.60;99.90;;;;;;7594621;19;20511;-71
2023/09/21 02:34:48;;;;;;;;;;;14.70;99.90;;;;;;7595557;19;19922;-71
2023/09/21 02:37:20;;;;;;;;;;;14.60;99.90;;;;;;7603514;19;19934;-72
2023/09/21 02:39:52;;;;;;;;;;;14.60;99.90;;;;;;7601313;19;19922;-70
2023/09/21 02:42:25;;;;;;;;;;;14.50;99.90;;;;;;7588091;19;20446;-71
2023/09/21 02:44:57;;;;;;;;;;;14.60;99.90;;;;;;7591765;19;20853;-71
2023/09/21 02:47:30;;;;;;;;;;;14.50;99.90;;;;;;7601037;19;19926;-71
2023/09/21 02:50:14;;;;;;;;;;;14.50;99.90;;;;;;7597176;19;20829;-71
2023/09/21 02:52:47;;;;;;;;;;;14.50;99.90;;;;;;7592339;19;20022;-71
2023/09/21 02:55:20;;;;;;;;;;;14.50;99.90;;;;;;7595338;19;19990;-71
2023/09/21 02:58:13;;;;;;;;;;;14.50;99.90;;;;;;7593526;19;19930;-71
2023/09/21 03:00:59;;;;;;;;;;;14.50;99.90;;;;;;7592975;19;20403;-71
2023/09/21 03:03:32;;;;;;;;;;;14.40;99.90;;;;;;7591075;19;19937;-71
2023/09/21 03:06:05;;;;;;;;;;;14.40;99.90;;;;;;7594627;19;19964;-71
2023/09/21 03:08:38;;;;;;;;;;;14.40;99.90;;;;;;7598156;19;19937;-71
2023/09/21 03:11:12;;;;;;;;;;;14.40;99.90;;;;;;7587884;19;19958;-71
2023/09/21 03:13:45;;;;;;;;;;;14.40;99.90;;;;;;7588694;19;19930;-71
2023/09/21 03:16:17;;;;;;;;;;;14.30;99.90;;;;;;7591538;19;19933;-71
2023/09/21 03:18:50;;;;;;;;;;;14.30;99.90;;;;;;7595524;19;19918;-71
2023/09/21 03:21:24;;;;;;;;;;;14.30;99.90;;;;;;7594543;19;19957;-73
2023/09/21 03:23:56;;;;;;;;;;;14.30;99.90;;;;;;7585245;19;19930;-70
2023/09/21 03:26:28;;;;;;;;;;;14.40;99.90;;;;;;7595292;19;19982;-71
2023/09/21 03:29:03;;;;;;;;;;;14.40;99.90;;;;;;7585709;19;20607;-73
2023/09/21 03:31:36;;;;;;;;;;;14.50;99.90;;;;;;7591402;19;19915;-73
2023/09/21 03:34:08;;;;;;;;;;;14.40;99.90;;;;;;7589321;19;19930;-73
2023/09/21 03:36:41;;;;;;;;;;;14.40;99.90;;;;;;7600443;19;19979;-73
2023/09/21 03:39:17;;;;;;;;;;;14.40;99.90;;;;;;7594296;19;19934;-73
2023/09/21 03:41:52;;;;;;;;;;;14.30;99.90;;;;;;7591940;19;19933;-73
2023/09/21 03:44:24;;;;;;;;;;;14.30;99.90;;;;;;7591828;19;19934;-71
2023/09/21 03:46:57;;;;;;;;;;;14.30;99.90;;;;;;7594146;19;19919;-71
2023/09/21 03:49:34;;;;;;;;;;;14.20;99.90;;;;;;7592750;19;20513;-71
2023/09/21 03:52:06;;;;;;;;;;;14.20;99.90;;;;;;7578801;19;20315;-71
2023/09/21 03:54:40;;;;;;;;;;;14.00;99.90;;;;;;7570714;19;19934;-72
2023/09/21 03:57:16;;;;;;;;;;;14.20;99.90;;;;;;7585409;19;20278;-72
2023/09/21 03:59:48;;;;;;;;;;;14.10;99.90;;;;;;7588465;19;19923;-75
2023/09/21 04:02:22;;;;;;;;;;;14.10;99.90;;;;;;7584058;19;19922;-72
2023/09/21 04:05:01;;;;;;;;;;;14.10;99.90;;;;;;7588151;19;19930;-73
2023/09/21 04:07:33;;;;;;;;;;;14.00;99.90;;;;;;7603865;19;20644;-73
2023/09/21 04:10:06;;;;;;;;;;;14.00;99.90;;;;;;7587212;19;19937;-73
2023/09/21 04:12:39;;;;;;;;;;;14.00;99.90;;;;;;7598849;19;19948;-73
2023/09/21 04:15:11;;;;;;;;;;;13.90;99.90;;;;;;7581042;19;19944;-73
2023/09/21 04:17:44;;;;;;;;;;;13.90;99.90;;;;;;7577335;19;21097;-73
2023/09/21 04:20:21;;;;;;;;;;;13.90;99.90;;;;;;7573519;19;19915;-73
2023/09/21 04:22:55;;;;;;;;;;;13.90;99.90;;;;;;7593020;19;19935;-73
2023/09/21 04:25:27;;;;;;;;;;;14.00;99.90;;;;;;7581159;19;19918;-74
2023/09/21 04:27:59;;;;;;;;;;;14.10;99.90;;;;;;7587505;19;20581;-74
2023/09/21 04:30:34;;;;;;;;;;;14.00;99.90;;;;;;7586930;19;20374;-74
2023/09/21 04:33:07;;;;;;;;;;;14.00;99.90;;;;;;7578814;19;19956;-74
2023/09/21 04:35:40;;;;;;;;;;;14.00;99.90;;;;;;7576593;19;19950;-74
2023/09/21 04:38:12;;;;;;;;;;;14.10;99.90;;;;;;7584800;19;20002;-74
2023/09/21 04:40:48;;;;;;;;;;;14.10;99.90;;;;;;7586356;19;19922;-73
2023/09/21 04:43:20;;;;;;;;;;;14.00;99.90;;;;;;7582565;19;20626;-73
2023/09/21 04:45:54;;;;;;;;;;;13.90;99.90;;;;;;7583603;19;19926;-73
2023/09/21 04:48:26;;;;;;;;;;;13.90;99.90;;;;;;7589100;19;19911;-73
2023/09/21 04:50:58;;;;;;;;;;;13.80;99.90;;;;;;7583719;19;19926;-74
2023/09/21 04:53:31;;;;;;;;;;;13.80;99.90;;;;;;7588342;19;19922;-72
2023/09/21 04:56:03;;;;;;;;;;;13.80;99.90;;;;;;7581962;19;21867;-72
2023/09/21 04:58:35;;;;;;;;;;;13.80;99.90;;;;;;7576904;19;19923;-73
2023/09/21 05:01:10;;;;;;;;;;;13.80;99.90;;;;;;7582098;19;19922;-73
2023/09/21 05:03:44;;;;;;;;;;;13.80;99.90;;;;;;7050238;19;21400;-74
2023/09/21 05:06:19;;;;;;;;;;;13.80;99.90;;;;;;6896450;19;20784;-74
2023/09/21 05:08:53;;;;;;;;;;;13.80;99.90;;;;;;6960791;19;19949;-71
2023/09/21 05:11:27;;;;;;;;;;;13.80;99.90;;;;;;6901668;19;21475;-73
2023/09/21 05:13:59;;;;;;;;;;;13.70;99.90;;;;;;7046998;19;20017;-73
2023/09/21 05:16:34;;;;;;;;;;;13.70;99.90;;;;;;7027700;19;21211;-73
2023/09/21 05:19:08;;;;;;;;;;;13.80;99.90;;;;;;6905803;19;21390;-71
2023/09/21 05:21:40;;;;;;;;;;;13.80;99.90;;;;;;6903280;19;20356;-71
2023/09/21 05:24:14;;;;;;;;;;;14.00;99.90;;;;;;7028918;19;19919;-73
2023/09/21 05:26:47;;;;;;;;;;;14.00;99.90;;;;;;7046339;19;21299;-71
2023/09/21 05:29:20;;;;;;;;;;;14.00;99.90;;;;;;6852511;19;20569;-71
2023/09/21 05:31:53;;;;;;;;;;;14.00;99.90;;;;;;6875911;19;21184;-71
2023/09/21 05:34:29;;;;;;;;;;;14.10;99.90;;;;;;6846788;19;20761;-70
2023/09/21 05:37:02;;;;;;;;;;;14.20;99.90;;;;;;6981580;19;20351;-75
2023/09/21 05:39:34;;;;;;;;;;;14.20;99.90;;;;;;7582334;19;19949;-73
2023/09/21 05:42:07;;;;;;;;;;;14.20;99.90;;;;;;7199268;19;19934;-73
2023/09/21 05:44:40;;;;;;;;;;;14.40;99.90;;;;;;6849291;19;21528;-71
2023/09/21 05:47:12;;;;;;;;;;;14.40;99.90;;;;;;6864149;19;20708;-71
2023/09/21 05:49:45;;;;;;;;;;;14.40;99.90;;;;;;6909224;19;21111;-71
2023/09/21 05:52:18;;;;;;;;;;;14.40;99.90;;;;;;6884277;19;20021;-71
2023/09/21 05:54:51;;;;;;;;;;;14.50;99.90;;;;;;6883124;19;21445;-71
2023/09/21 05:57:24;;;;;;;;;;;14.40;99.90;;;;;;6859830;19;20739;-71
2023/09/21 05:59:57;;;;;;;;;;;14.30;99.90;;;;;;6853656;19;20582;-71
2023/09/21 06:02:30;;;;;;;;;;;14.40;99.90;;;;;;6853041;19;20646;-72
2023/09/21 06:05:03;;;;;;;;;;;14.50;99.90;;;;;;6848558;19;19914;-71
2023/09/21 06:07:36;;;;;;;;;;;14.40;99.90;;;;;;6861094;19;21018;-72
2023/09/21 06:10:09;;;;;;;;;;;14.50;99.90;;;;;;6865298;19;21160;-73
2023/09/21 06:12:42;;;;;;;;;;;14.50;99.90;;;;;;6864417;19;19934;-72
2023/09/21 06:15:15;;;;;;;;;;;14.60;99.90;;;;;;6855594;19;21197;-71
2023/09/21 06:17:47;;;;;;;;;;;14.70;99.90;;;;;;6855806;19;19930;-72
2023/09/21 06:20:20;;;;;;;;;;;14.80;99.90;;;;;;6850300;19;20946;-71
2023/09/21 06:22:53;;;;;;;;;;;14.80;99.90;;;;;;6842096;19;21312;-70
2023/09/21 06:25:25;;;;;;;;;;;14.90;99.90;;;;;;6845829;19;21034;-71
2023/09/21 06:28:01;;;;;;;;;;;14.90;99.90;;;;;;6843721;19;22069;-72
2023/09/21 06:30:34;;;;;;;;;;;14.90;99.90;;;;;;6850272;19;21389;-71
2023/09/21 06:33:06;;;;;;;;;;;15.00;99.90;;;;;;6842616;19;21155;-72
2023/09/21 06:35:40;;;;;;;;;;;15.20;99.90;;;;;;6847976;19;20564;-71
2023/09/21 06:38:13;;;;;;;;;;;15.30;99.90;;;;;;6845379;19;19919;-72
2023/09/21 06:40:48;;;;;;;;;;;15.40;99.90;;;;;;6851241;19;21212;-71
2023/09/21 06:43:21;;;;;;;;;;;15.50;99.90;;;;;;6850011;19;22041;-70
2023/09/21 06:45:53;;;;;;;;;;;15.70;99.90;;;;;;6852035;19;21170;-73
2023/09/21 06:48:26;;;;;;;;;;;15.70;99.90;;;;;;6838642;19;20934;-71
2023/09/21 06:50:58;;;;;;;;;;;15.90;99.90;;;;;;6846786;19;19950;-71
2023/09/21 06:53:32;;;;;;;;;;;16.10;99.90;;;;;;6850662;19;21493;-74
2023/09/21 06:56:05;;;;;;;;;;;16.20;99.90;;;;;;6844895;19;20986;-71
2023/09/21 06:58:38;;;;;;;;;;;16.30;99.90;;;;;;6847133;19;19918;-73
2023/09/21 07:01:11;;;;;;;;;;;16.60;99.90;;;;;;6843555;19;21169;-71
2023/09/21 07:03:43;;;;;;;;;;;16.70;99.90;;;;;;6851217;19;20851;-73
2023/09/21 07:06:19;;;;;;;;;;;16.90;99.90;;;;;;6836684;19;20847;-72
2023/09/21 07:08:52;;;;;;;;;;;17.10;99.90;;;;;;6852626;19;20904;-72
2023/09/21 07:11:24;;;;;;;;;;;17.10;99.90;;;;;;6843532;19;20679;-72
2023/09/21 07:13:57;;;;;;;;;;;17.20;99.90;;;;;;6844315;19;19925;-72
2023/09/21 07:16:29;;;;;;;;;;;17.20;99.90;;;;;;6845113;19;21440;-71
2023/09/21 07:19:03;;;;;;;;;;;17.30;99.90;;;;;;6836675;19;21412;-71
2023/09/21 07:21:36;;;;;;;;;;;17.40;99.90;;;;;;6836251;19;21190;-71
2023/09/21 07:24:08;;;;;;;;;;;17.40;99.90;;;;;;6858691;19;21114;-72
2023/09/21 07:26:43;;;;;;;;;;;17.60;99.90;;;;;;6933217;19;20753;-72
2023/09/21 07:29:17;;;;;;;;;;;17.70;99.90;;;;;;6860215;19;21234;-71
2023/09/21 07:31:50;;;;;;;;;;;17.90;99.90;;;;;;6849518;19;21002;-73
2023/09/21 07:34:23;;;;;;;;;;;18.10;99.90;;;;;;6847930;19;21281;-73
2023/09/21 07:36:56;;;;;;;;;;;18.30;99.90;;;;;;6843902;19;21029;-70
2023/09/21 07:39:28;;;;;;;;;;;18.50;99.90;;;;;;7329242;19;19927;-73
2023/09/21 07:42:04;;;;;;;;;;;18.70;99.90;;;;;;7606346;19;19994;-72
2023/09/21 07:44:37;;;;;;;;;;;18.80;99.90;;;;;;7609380;19;20161;-71
2023/09/21 07:47:09;;;;;;;;;;;19.00;99.90;;;;;;7607373;19;19926;-72
2023/09/21 07:49:44;;;;;;;;;;;19.10;99.90;;;;;;7344741;19;21622;-72
2023/09/21 07:52:18;;;;;;;;;;;19.20;99.90;;;;;;6842539;19;21301;-71
2023/09/21 07:54:50;;;;;;;;;;;19.30;99.90;;;;;;6837996;19;20936;-71
2023/09/21 07:57:23;;;;;;;;;;;19.40;99.90;;;;;;6840813;19;20686;-73
2023/09/21 07:59:55;;;;;;;;;;;19.50;99.90;;;;;;6842953;19;20853;-73
2023/09/21 08:02:28;;;;;;;;;;;19.60;99.90;;;;;;6851230;19;21011;-73
2023/09/21 08:05:02;;;;;;;;;;;19.70;99.90;;;;;;6839321;19;20449;-73
2023/09/21 08:07:36;;;;;;;;;;;19.80;99.90;;;;;;6841818;19;21060;-74
2023/09/21 08:10:10;;;;;;;;;;;19.90;99.90;;;;;;6847268;19;20851;-72
2023/09/21 08:12:44;;;;;;;;;;;20.00;99.90;;;;;;6839916;19;21033;-73
2023/09/21 08:15:19;;;;;;;;;;;20.00;99.90;;;;;;6831709;19;21324;-73
2023/09/21 08:17:53;;;;;;;;;;;20.10;99.90;;;;;;6837129;19;21001;-71
2023/09/21 08:20:26;;;;;;;;;;;20.20;99.90;;;;;;6837821;19;21038;-72
2023/09/21 08:22:58;;;;;;;;;;;20.30;99.90;;;;;;6832826;19;21483;-74
2023/09/21 08:25:30;;;;;;;;;;;20.30;99.90;;;;;;6836427;19;19930;-72
2023/09/21 08:28:07;;;;;;;;;;;20.50;99.90;;;;;;6836974;19;21391;-72
2023/09/21 08:30:39;;;;;;;;;;;20.60;99.90;;;;;;6828199;19;19918;-71
2023/09/21 08:33:12;;;;;;;;;;;20.70;99.90;;;;;;6831896;19;19929;-71
2023/09/21 08:35:45;;;;;;;;;;;20.90;99.90;;;;;;6840887;19;21169;-71
2023/09/21 08:38:18;;;;;;;;;;;20.80;99.90;;;;;;6841610;19;20875;-72
2023/09/21 08:40:52;;;;;;;;;;;21.00;99.90;;;;;;6842429;19;20738;-71
2023/09/21 08:43:25;;;;;;;;;;;21.10;99.90;;;;;;6834430;19;20418;-73
2023/09/21 08:45:58;;;;;;;;;;;21.10;99.90;;;;;;6823498;19;20699;-72
2023/09/21 08:48:31;;;;;;;;;;;21.30;99.90;;;;;;6836056;19;19990;-73
2023/09/21 08:51:08;;;;;;;;;;;21.40;99.90;;;;;;6835938;19;20827;-73
2023/09/21 08:53:41;;;;;;;;;;;21.50;99.90;;;;;;6835528;19;20754;-72
2023/09/21 08:56:14;;;;;;;;;;;21.50;99.90;;;;;;6835937;19;21085;-71
2023/09/21 08:58:48;;;;;;;;;;;21.60;99.90;;;;;;6837642;19;21187;-72
2023/09/21 09:01:20;;;;;;;;;;;21.60;99.90;;;;;;6844763;19;19941;-71
2023/09/21 09:03:53;;;;;;;;;;;21.80;99.90;;;;;;6843178;19;21200;-74
2023/09/21 09:06:29;;;;;;;;;;;21.90;99.90;;;;;;6829694;19;21432;-71
2023/09/21 09:09:02;;;;;;;;;;;22.00;99.90;;;;;;6841598;19;20821;-72
2023/09/21 09:11:35;;;;;;;;;;;21.90;99.90;;;;;;6836336;19;21156;-71
2023/09/21 09:14:16;;;;;;;;;;;22.00;99.90;;;;;;6836612;19;20574;-71
2023/09/21 09:16:52;;;;;;;;;;;22.10;99.90;;;;;;5917970;19;10001419;-72
2023/09/21 09:19:26;;;;;;;;;;;22.10;99.90;;;;;;6840093;19;21439;-70
2023/09/21 09:22:00;;;;;;;;;;;22.10;99.90;;;;;;6846289;19;21193;-72
2023/09/21 09:24:33;;;;;;;;;;;22.20;99.90;;;;;;6843994;19;20104;-73
2023/09/21 09:27:05;;;;;;;;;;;22.30;99.90;;;;;;6823119;19;19922;-73
2023/09/21 09:29:48;;;;;;;;;;;22.20;99.90;;;;;;6843903;19;21459;-71
2023/09/21 09:32:21;;;;;;;;;;;22.40;99.90;;;;;;6850595;19;20708;-73
2023/09/21 09:34:53;;;;;;;;;;;22.50;99.90;;;;;;7519539;19;19918;-72
2023/09/21 09:37:26;;;;;;;;;;;22.70;99.60;;;;;;7581601;19;19934;-73
2023/09/21 09:39:58;;;;;;;;;;;22.80;99.40;;;;;;7586122;19;19968;-74
2023/09/21 09:42:30;;;;;;;;;;;22.90;98.90;;;;;;7592330;19;19919;-73
2023/09/21 09:45:03;;;;;;;;;;;23.00;98.70;;;;;;7578718;19;22478;-72
2023/09/21 09:47:36;;;;;;;;;;;23.00;99.00;;;;;;7584509;19;19934;-72
2023/09/21 09:50:09;;;;;;;;;;;23.00;99.80;;;;;;7587528;19;20878;-74
2023/09/21 09:52:44;;;;;;;;;;;23.10;98.80;;;;;;7572504;19;19922;-74
2023/09/21 09:55:18;;;;;;;;;;;23.10;99.20;;;;;;7584644;19;19952;-73
2023/09/21 09:57:53;;;;;;;;;;;23.30;98.10;;;;;;7578001;19;19922;-73
2023/09/21 10:00:27;;;;;;;;;;;23.50;97.70;;;;;;7584033;19;19942;-72
2023/09/21 10:03:00;;;;;;;;;;;23.50;97.30;;;;;;7593466;19;20021;-73
2023/09/21 10:05:35;;;;;;;;;;;23.40;97.50;;;;;;7594540;19;19930;-72
2023/09/21 10:08:08;;;;;;;;;;;23.50;97.90;;;;;;7599964;19;19921;-73
2023/09/21 10:10:46;;;;;;;;;;;23.60;97.20;;;;;;7597399;19;19918;-72
2023/09/21 10:13:18;;;;;;;;;;;23.60;97.10;;;;;;7607456;19;19915;-73
2023/09/21 10:16:01;;;;;;;;;;;23.80;95.80;;;;;;7604663;19;19950;-74
2023/09/21 10:18:37;;;;;;;;;;;24.00;95.90;;;;;;7608048;19;19922;-74
2023/09/21 10:21:38;;;;;;;;;;;24.10;95.70;;;;;;7612787;19;20487;-74
2023/09/21 10:24:14;;;;;;;;;;;24.10;95.60;;;;;;7607613;19;19918;-72
2023/09/21 10:26:49;;;;;;;;;;;24.00;95.80;;;;;;7607134;19;19948;-73
2023/09/21 10:29:32;;;;;;;;;;;24.00;95.90;;;;;;7611249;19;19978;-72
2023/09/21 10:32:08;;;;;;;;;;;24.10;95.60;;;;;;7605911;19;19931;-73
2023/09/21 10:34:48;;;;;;;;;;;24.10;96.20;;;;;;7605439;19;19958;-72
2023/09/21 10:37:26;;;;;;;;;;;24.30;95.90;;;;;;7615167;19;19923;-73
2023/09/21 10:40:07;;;;;;;;;;;24.30;94.90;;;;;;7612231;19;19919;-73
2023/09/21 10:42:40;;;;;;;;;;;24.30;96.00;;;;;;7612234;19;20579;-74
2023/09/21 10:45:13;;;;;;;;;;;24.30;94.30;;;;;;7612639;19;20408;-73
2023/09/21 10:47:47;;;;;;;;;;;24.40;94.30;;;;;;7612894;19;19980;-72
2023/09/21 10:50:21;;;;;;;;;;;24.60;93.10;;;;;;7615521;19;19999;-75
2023/09/21 10:52:55;;;;;;;;;;;24.70;93.00;;;;;;7615141;19;19926;-75
2023/09/21 10:55:28;;;;;;;;;;;25.00;91.20;;;;;;7615260;19;20775;-74
2023/09/21 10:58:00;;;;;;;;;;;25.10;90.80;;;;;;7618778;19;19926;-76
2023/09/21 11:00:33;;;;;;;;;;;25.10;90.30;;;;;;7616516;19;20896;-74
2023/09/21 11:03:05;;;;;;;;;;;25.20;90.90;;;;;;7614419;19;19925;-74
2023/09/21 11:05:38;;;;;;;;;;;25.30;90.40;;;;;;7615440;19;20025;-73
2023/09/21 11:08:11;;;;;;;;;;;25.30;89.20;;;;;;7617568;19;19934;-75
2023/09/21 11:10:43;;;;;;;;;;;25.30;89.30;;;;;;7611929;19;19922;-73
2023/09/21 11:13:18;;;;;;;;;;;25.50;88.60;;;;;;7611057;19;19946;-73
2023/09/21 11:15:54;;;;;;;;;;;25.70;89.70;;;;;;7614397;19;20811;-73
2023/09/21 11:18:29;;;;;;;;;;;25.70;89.80;;;;;;7618035;19;20562;-72
2023/09/21 11:21:03;;;;;;;;;;;25.80;88.70;;;;;;7616930;19;19918;-73
2023/09/21 11:23:36;;;;;;;;;;;26.00;86.90;;;;;;7619972;19;19923;-72
2023/09/21 11:26:11;;;;;;;;;;;26.40;86.90;;;;;;7631090;19;19930;-74
2023/09/21 11:28:43;;;;;;;;;;;27.00;83.20;;;;;;7629005;19;20033;-72
2023/09/21 11:31:17;;;;;;;;;;;27.80;79.70;;;;;;7619247;19;20471;-74
2023/09/21 11:33:50;;;;;;;;;;;28.40;80.20;;;;;;7616827;19;21035;-74
2023/09/21 11:36:24;;;;;;;;;;;29.00;76.80;;;;;;7609763;19;19921;-72
2023/09/21 11:38:56;;;;;;;;;;;29.40;78.00;;;;;;7608576;19;19927;-72
2023/09/21 11:41:28;;;;;;;;;;;30.10;73.00;;;;;;7614856;19;20018;-72
2023/09/21 11:44:04;;;;;;;;;;;30.70;72.80;;;;;;7607648;19;19915;-74
2023/09/21 11:46:39;;;;;;;;;;;31.00;68.10;;;;;;7601958;19;19926;-72
2023/09/21 11:49:13;;;;;;;;;;;31.30;67.60;;;;;;7606142;19;19927;-73
2023/09/21 11:51:45;;;;;;;;;;;31.50;66.80;;;;;;7604169;19;20547;-72
2023/09/21 11:54:17;;;;;;;;;;;31.70;64.80;;;;;;7603155;19;21968;-73
2023/09/21 11:56:50;;;;;;;;;;;31.50;63.50;;;;;;7607295;19;19922;-73
2023/09/21 11:59:22;;;;;;;;;;;31.90;63.70;;;;;;7610988;19;20561;-72
2023/09/21 12:01:56;;;;;;;;;;;32.00;64.00;;;;;;7600680;19;19923;-72
2023/09/21 12:04:31;;;;;;;;;;;32.50;59.70;;;;;;7608071;19;19914;-73
2023/09/21 12:07:04;;;;;;;;;;;32.40;59.30;;;;;;7597974;19;20432;-73
2023/09/21 12:09:40;;;;;;;;;;;32.50;59.80;;;;;;7594794;19;20804;-72
2023/09/21 12:12:13;;;;;;;;;;;33.10;61.10;;;;;;7596823;19;20148;-72
2023/09/21 12:14:45;;;;;;;;;;;33.20;57.80;;;;;;7596426;19;20424;-74
2023/09/21 12:17:19;;;;;;;;;;;33.50;61.70;;;;;;7593372;19;19922;-73
2023/09/21 12:19:53;;;;;;;;;;;33.70;56.80;;;;;;7596427;19;20882;-73
2023/09/21 12:22:26;;;;;;;;;;;33.90;58.60;;;;;;7604131;19;19926;-74
2023/09/21 12:25:02;;;;;;;;;;;33.90;58.90;;;;;;7607460;19;19929;-74
2023/09/21 12:27:35;;;;;;;;;;;34.00;58.90;;;;;;7610452;19;20881;-73
2023/09/21 12:30:14;;;;;;;;;;;33.80;58.40;;;;;;7333694;19;19918;-73
2023/09/21 12:32:51;;;;;;;;;;;34.10;56.70;;;;;;6717308;19;10000832;-71
2023/09/21 12:35:25;;;;;;;;;;;34.20;57.90;;;;;;7240208;19;20508;-70
2023/09/21 12:38:00;;;;;;;;;;;34.10;54.80;;;;;;7121010;19;19934;-72
2023/09/21 12:40:33;;;;;;;;;;;34.10;56.80;;;;;;7144583;19;20274;-72
2023/09/21 12:43:08;;;;;;;;;;;34.50;54.30;;;;;;7197398;19;19922;-70
2023/09/21 12:45:41;;;;;;;;;;;35.10;54.70;;;;;;7223502;19;19971;-72
2023/09/21 12:48:14;;;;;;;;;;;35.30;53.60;;;;;;7250041;19;19933;-71
2023/09/21 12:50:47;;;;;;;;;;;35.50;53.70;;;;;;7254740;19;21170;-71
2023/09/21 12:53:20;;;;;;;;;;;35.60;52.90;;;;;;7141571;19;20195;-72
2023/09/21 12:55:53;;;;;;;;;;;35.50;52.30;;;;;;7267633;19;19919;-71
2023/09/21 12:58:26;;;;;;;;;;;35.60;52.90;;;;;;7225876;19;19936;-71
2023/09/21 13:00:59;;;;;;;;;;;35.50;52.70;;;;;;7196131;19;19927;-71
2023/09/21 13:03:34;;;;;;;;;;;35.70;52.50;;;;;;7252919;19;19923;-71
2023/09/21 13:06:06;;;;;;;;;;;36.10;51.70;;;;;;7254818;19;19926;-72
2023/09/21 13:08:40;;;;;;;;;;;36.30;51.20;;;;;;7254214;19;19929;-71
2023/09/21 13:11:13;;;;;;;;;;;36.50;52.40;;;;;;7282059;19;19922;-71
2023/09/21 13:13:46;;;;;;;;;;;36.50;51.40;;;;;;7240347;19;19967;-70
2023/09/21 13:16:19;;;;;;;;;;;36.70;51.10;;;;;;7206387;19;20133;-71
2023/09/21 13:18:52;;;;;;;;;;;36.70;51.60;;;;;;7243483;19;19923;-71
2023/09/21 13:21:25;;;;;;;;;;;36.00;49.60;;;;;;7204013;19;19960;-71
2023/09/21 13:23:58;;;;;;;;;;;35.50;51.50;;;;;;7232405;19;19922;-72
2023/09/21 13:26:31;;;;;;;;;;;34.50;52.20;;;;;;7262062;19;19926;-71
2023/09/21 13:29:04;;;;;;;;;;;34.90;52.90;;;;;;7302891;19;19966;-72
2023/09/21 13:31:36;;;;;;;;;;;35.70;52.10;;;;;;7582662;19;20374;-72
2023/09/21 13:34:09;;;;;;;;;;;36.00;49.60;;;;;;7569295;19;20009;-72
2023/09/21 13:36:41;;;;;;;;;;;36.10;50.00;;;;;;7567977;19;20399;-73
2023/09/21 13:39:14;;;;;;;;;;;;;;;;;;7277054;19;21290;-71
2023/09/21 13:41:53;;;;;;;;;;;36.50;50.70;;;;;;7285796;19;19953;-72
2023/09/21 13:44:27;;;;;;;;;;;37.20;49.10;;;;;;7326954;19;20026;-71
2023/09/21 13:47:00;;;;;;;;;;;37.30;50.30;;;;;;7322803;19;19938;-71
2023/09/21 13:49:33;;;;;;;;;;;37.30;49.50;;;;;;7285343;19;19922;-72
2023/09/21 13:52:07;;;;;;;;;;;37.40;48.50;;;;;;7246765;19;20890;-72
2023/09/21 13:54:40;;;;;;;;;;;37.80;47.00;;;;;;7242629;19;20767;-71
2023/09/21 13:57:14;;;;;;;;;;;37.30;48.90;;;;;;7214042;19;20822;-72
2023/09/21 13:59:47;;;;;;;;;;;36.70;48.80;;;;;;7197807;19;19926;-72
2023/09/21 14:02:20;;;;;;;;;;;36.80;51.90;;;;;;7223926;19;20027;-71
2023/09/21 14:04:52;;;;;;;;;;;37.10;48.60;;;;;;7213617;19;19914;-71
2023/09/21 14:07:26;;;;;;;;;;;37.90;50.40;;;;;;7203980;19;20177;-71
2023/09/21 14:09:58;;;;;;;;;;;37.90;48.40;;;;;;7203029;19;19922;-72
2023/09/21 14:12:31;;;;;;;;;;;38.20;47.90;;;;;;7189697;19;19919;-71
2023/09/21 14:15:05;;;;;;;;;;;38.40;47.80;;;;;;7173916;19;19923;-72
2023/09/21 14:17:39;;;;;;;;;;;38.30;46.80;;;;;;7190519;19;19919;-71
2023/09/21 14:20:13;;;;;;;;;;;38.30;47.20;;;;;;7183608;19;19923;-72
2023/09/21 14:22:46;;;;;;;;;;;38.60;48.10;;;;;;7184407;19;20085;-71
2023/09/21 14:25:37;;;;;;;;;;;39.00;46.00;;;;;;7183407;19;19907;-70
2023/09/21 14:28:10;;;;;;;;;;;38.20;47.90;;;;;;7175400;19;19922;-71
2023/09/21 14:30:42;;;;;;;;;;;37.10;49.40;;;;;;7186565;19;21117;-72
2023/09/21 14:33:20;;;;;;;;;;;36.00;49.30;;;;;;7171376;19;19947;-71
2023/09/21 14:35:53;;;;;;;;;;;34.90;51.20;;;;;;7186550;19;20041;-72
2023/09/21 14:38:26;;;;;;;;;;;34.50;52.20;;;;;;7131470;19;20236;-71
2023/09/21 14:41:01;;;;;;;;;;;34.10;53.50;;;;;;7097360;19;19961;-72
2023/09/21 14:43:34;;;;;;;;;;;33.70;53.10;;;;;;7116244;19;19930;-72
2023/09/21 14:46:07;;;;;;;;;;;32.70;53.70;;;;;;7114900;19;19923;-71
2023/09/21 14:48:40;;;;;;;;;;;32.00;53.80;;;;;;7101941;19;20022;-71
2023/09/21 14:51:13;;;;;;;;;;;31.80;55.70;;;;;;7110638;19;19918;-71
2023/09/21 14:53:45;;;;;;;;;;;31.40;57.40;;;;;;7090724;19;19934;-72